sensor_id;sensor_type;location;lat;lon;timestamp;P1;durP1;ratioP1;P2;durP2;ratioP2
72408;SDS011;60402;48.082;11.628;2023-03-11T00:00:22;2.22;;;0.68;;
72408;SDS011;60402;48.082;11.628;2023-03-11T00:02:49;3.13;;;0.57;;
72408;SDS011;60402;48.082;11.628;2023-03-11T00:05:17;1.80;;;0.73;;
72408;SDS011;60402;48.082;11.628;2023-03-11T00:07:47;2.63;;;0.77;;
72408;SDS011;60402;48.082;11.628;2023-03-11T00:10:17;1.60;;;0.80;;
72408;SDS011;60402;48.082;11.628;2023-03-11T00:12:44;2.63;;;1.27;;
72408;SDS011;60402;48.082;11.628;2023-03-11T00:15:10;1.73;;;0.60;;
72408;SDS011;60402;48.082;11.628;2023-03-11T00:17:36;2.30;;;0.52;;
72408;SDS011;60402;48.082;11.628;2023-03-11T00:20:02;1.20;;;0.65;;
72408;SDS011;60402;48.082;11.628;2023-03-11T00:22:29;1.67;;;0.73;;
72408;SDS011;60402;48.082;11.628;2023-03-11T00:24:54;2.08;;;0.68;;
72408;SDS011;60402;48.082;11.628;2023-03-11T00:27:19;1.67;;;0.60;;
72408;SDS011;60402;48.082;11.628;2023-03-11T00:29:44;1.30;;;0.70;;
72408;SDS011;60402;48.082;11.628;2023-03-11T00:32:10;1.47;;;0.53;;
72408;SDS011;60402;48.082;11.628;2023-03-11T00:34:36;1.52;;;0.63;;
72408;SDS011;60402;48.082;11.628;2023-03-11T00:37:01;1.58;;;0.50;;
72408;SDS011;60402;48.082;11.628;2023-03-11T00:39:26;1.27;;;0.60;;
72408;SDS011;60402;48.082;11.628;2023-03-11T00:41:52;1.13;;;0.73;;
72408;SDS011;60402;48.082;11.628;2023-03-11T00:44:17;1.30;;;0.60;;
72408;SDS011;60402;48.082;11.628;2023-03-11T00:46:43;1.13;;;0.47;;
72408;SDS011;60402;48.082;11.628;2023-03-11T00:49:08;0.90;;;0.60;;
72408;SDS011;60402;48.082;11.628;2023-03-11T00:51:33;1.55;;;0.57;;
72408;SDS011;60402;48.082;11.628;2023-03-11T00:53:59;0.43;;;0.40;;
72408;SDS011;60402;48.082;11.628;2023-03-11T00:56:25;1.00;;;0.60;;
72408;SDS011;60402;48.082;11.628;2023-03-11T00:58:50;2.28;;;0.63;;
72408;SDS011;60402;48.082;11.628;2023-03-11T01:01:16;0.88;;;0.60;;
72408;SDS011;60402;48.082;11.628;2023-03-11T01:03:43;0.52;;;0.40;;
72408;SDS011;60402;48.082;11.628;2023-03-11T01:06:09;1.13;;;0.38;;
72408;SDS011;60402;48.082;11.628;2023-03-11T01:08:35;0.30;;;0.30;;
72408;SDS011;60402;48.082;11.628;2023-03-11T01:11:01;0.95;;;0.40;;
72408;SDS011;60402;48.082;11.628;2023-03-11T01:13:28;1.60;;;0.60;;
72408;SDS011;60402;48.082;11.628;2023-03-11T01:15:54;1.05;;;0.50;;
72408;SDS011;60402;48.082;11.628;2023-03-11T01:18:20;0.40;;;0.40;;
72408;SDS011;60402;48.082;11.628;2023-03-11T01:20:46;0.50;;;0.43;;
72408;SDS011;60402;48.082;11.628;2023-03-11T01:23:13;0.95;;;0.40;;
72408;SDS011;60402;48.082;11.628;2023-03-11T01:25:39;0.60;;;0.47;;
72408;SDS011;60402;48.082;11.628;2023-03-11T01:28:05;1.75;;;0.60;;
72408;SDS011;60402;48.082;11.628;2023-03-11T01:30:32;0.85;;;0.57;;
72408;SDS011;60402;48.082;11.628;2023-03-11T01:32:59;1.45;;;0.70;;
72408;SDS011;60402;48.082;11.628;2023-03-11T01:35:25;0.65;;;0.50;;
72408;SDS011;60402;48.082;11.628;2023-03-11T01:37:52;2.17;;;0.80;;
72408;SDS011;60402;48.082;11.628;2023-03-11T01:43:04;1.80;;;0.63;;
72408;SDS011;60402;48.082;11.628;2023-03-11T01:48:15;0.88;;;0.50;;
72408;SDS011;60402;48.082;11.628;2023-03-11T01:50:42;1.38;;;0.63;;
72408;SDS011;60402;48.082;11.628;2023-03-11T01:53:13;0.57;;;0.50;;
72408;SDS011;60402;48.082;11.628;2023-03-11T01:55:40;1.63;;;0.63;;
72408;SDS011;60402;48.082;11.628;2023-03-11T01:58:08;0.88;;;0.60;;
72408;SDS011;60402;48.082;11.628;2023-03-11T02:00:38;1.40;;;0.73;;
72408;SDS011;60402;48.082;11.628;2023-03-11T02:03:12;1.15;;;0.68;;
72408;SDS011;60402;48.082;11.628;2023-03-11T02:05:41;1.63;;;0.60;;
72408;SDS011;60402;48.082;11.628;2023-03-11T02:08:07;1.17;;;0.70;;
72408;SDS011;60402;48.082;11.628;2023-03-11T02:10:32;1.70;;;0.80;;
72408;SDS011;60402;48.082;11.628;2023-03-11T02:12:58;1.75;;;0.52;;
72408;SDS011;60402;48.082;11.628;2023-03-11T02:15:26;0.70;;;0.40;;
72408;SDS011;60402;48.082;11.628;2023-03-11T02:17:51;1.17;;;0.52;;
72408;SDS011;60402;48.082;11.628;2023-03-11T02:23:18;1.58;;;0.50;;
72408;SDS011;60402;48.082;11.628;2023-03-11T02:28:32;1.58;;;0.80;;
72408;SDS011;60402;48.082;11.628;2023-03-11T02:31:00;1.25;;;0.60;;
72408;SDS011;60402;48.082;11.628;2023-03-11T02:33:27;1.45;;;0.63;;
72408;SDS011;60402;48.082;11.628;2023-03-11T02:35:56;1.30;;;0.60;;
72408;SDS011;60402;48.082;11.628;2023-03-11T02:38:21;1.58;;;0.70;;
72408;SDS011;60402;48.082;11.628;2023-03-11T02:40:48;1.83;;;0.60;;
72408;SDS011;60402;48.082;11.628;2023-03-11T02:45:43;0.82;;;0.50;;
72408;SDS011;60402;48.082;11.628;2023-03-11T02:48:10;1.08;;;0.40;;
72408;SDS011;60402;48.082;11.628;2023-03-11T02:50:36;1.30;;;0.75;;
72408;SDS011;60402;48.082;11.628;2023-03-11T02:53:03;2.03;;;0.55;;
72408;SDS011;60402;48.082;11.628;2023-03-11T02:55:31;2.08;;;0.65;;
72408;SDS011;60402;48.082;11.628;2023-03-11T02:57:56;1.13;;;0.50;;
72408;SDS011;60402;48.082;11.628;2023-03-11T03:00:22;1.27;;;0.52;;
72408;SDS011;60402;48.082;11.628;2023-03-11T03:02:47;0.93;;;0.30;;
72408;SDS011;60402;48.082;11.628;2023-03-11T03:05:16;1.05;;;0.57;;
72408;SDS011;60402;48.082;11.628;2023-03-11T03:07:44;1.08;;;0.60;;
72408;SDS011;60402;48.082;11.628;2023-03-11T03:10:11;1.00;;;0.55;;
72408;SDS011;60402;48.082;11.628;2023-03-11T03:12:38;0.63;;;0.30;;
72408;SDS011;60402;48.082;11.628;2023-03-11T03:15:03;0.37;;;0.33;;
72408;SDS011;60402;48.082;11.628;2023-03-11T03:17:28;1.17;;;0.50;;
72408;SDS011;60402;48.082;11.628;2023-03-11T03:19:54;1.08;;;0.50;;
72408;SDS011;60402;48.082;11.628;2023-03-11T03:22:19;2.60;;;0.57;;
72408;SDS011;60402;48.082;11.628;2023-03-11T03:24:44;1.52;;;0.70;;
72408;SDS011;60402;48.082;11.628;2023-03-11T03:27:10;1.15;;;0.40;;
72408;SDS011;60402;48.082;11.628;2023-03-11T03:29:35;2.17;;;0.70;;
72408;SDS011;60402;48.082;11.628;2023-03-11T03:32:00;1.70;;;0.60;;
72408;SDS011;60402;48.082;11.628;2023-03-11T03:34:25;0.85;;;0.50;;
72408;SDS011;60402;48.082;11.628;2023-03-11T03:36:51;1.13;;;0.50;;
72408;SDS011;60402;48.082;11.628;2023-03-11T03:39:16;0.73;;;0.40;;
72408;SDS011;60402;48.082;11.628;2023-03-11T03:41:43;1.02;;;0.57;;
72408;SDS011;60402;48.082;11.628;2023-03-11T03:44:09;1.58;;;0.43;;
72408;SDS011;60402;48.082;11.628;2023-03-11T03:46:34;2.25;;;0.50;;
72408;SDS011;60402;48.082;11.628;2023-03-11T03:48:59;0.90;;;0.40;;
72408;SDS011;60402;48.082;11.628;2023-03-11T03:51:25;1.30;;;0.40;;
72408;SDS011;60402;48.082;11.628;2023-03-11T03:53:50;0.63;;;0.30;;
72408;SDS011;60402;48.082;11.628;2023-03-11T03:56:16;0.60;;;0.50;;
72408;SDS011;60402;48.082;11.628;2023-03-11T03:58:42;0.28;;;0.20;;
72408;SDS011;60402;48.082;11.628;2023-03-11T04:01:07;1.42;;;0.43;;
72408;SDS011;60402;48.082;11.628;2023-03-11T04:03:34;0.57;;;0.40;;
72408;SDS011;60402;48.082;11.628;2023-03-11T04:06:06;0.88;;;0.60;;
72408;SDS011;60402;48.082;11.628;2023-03-11T04:08:34;1.55;;;0.60;;
72408;SDS011;60402;48.082;11.628;2023-03-11T04:10:59;1.10;;;0.40;;
72408;SDS011;60402;48.082;11.628;2023-03-11T04:13:24;1.03;;;0.40;;
72408;SDS011;60402;48.082;11.628;2023-03-11T04:15:50;0.30;;;0.20;;
72408;SDS011;60402;48.082;11.628;2023-03-11T04:18:15;0.30;;;0.30;;
72408;SDS011;60402;48.082;11.628;2023-03-11T04:20:40;0.88;;;0.40;;
72408;SDS011;60402;48.082;11.628;2023-03-11T04:23:05;0.43;;;0.30;;
72408;SDS011;60402;48.082;11.628;2023-03-11T04:25:31;0.97;;;0.50;;
72408;SDS011;60402;48.082;11.628;2023-03-11T04:27:58;1.13;;;0.45;;
72408;SDS011;60402;48.082;11.628;2023-03-11T04:30:23;1.67;;;0.35;;
72408;SDS011;60402;48.082;11.628;2023-03-11T04:32:49;0.82;;;0.40;;
72408;SDS011;60402;48.082;11.628;2023-03-11T04:35:14;1.20;;;0.50;;
72408;SDS011;60402;48.082;11.628;2023-03-11T04:37:39;0.52;;;0.45;;
72408;SDS011;60402;48.082;11.628;2023-03-11T04:40:05;0.85;;;0.40;;
72408;SDS011;60402;48.082;11.628;2023-03-11T04:42:31;1.15;;;0.50;;
72408;SDS011;60402;48.082;11.628;2023-03-11T04:44:56;1.23;;;0.60;;
72408;SDS011;60402;48.082;11.628;2023-03-11T04:47:21;1.35;;;0.43;;
72408;SDS011;60402;48.082;11.628;2023-03-11T04:49:47;1.75;;;0.73;;
72408;SDS011;60402;48.082;11.628;2023-03-11T04:52:12;1.38;;;0.60;;
72408;SDS011;60402;48.082;11.628;2023-03-11T04:54:37;1.33;;;0.50;;
72408;SDS011;60402;48.082;11.628;2023-03-11T04:57:03;1.77;;;0.38;;
72408;SDS011;60402;48.082;11.628;2023-03-11T04:59:28;1.02;;;0.32;;
72408;SDS011;60402;48.082;11.628;2023-03-11T05:01:53;2.63;;;0.60;;
72408;SDS011;60402;48.082;11.628;2023-03-11T05:04:19;0.90;;;0.60;;
72408;SDS011;60402;48.082;11.628;2023-03-11T05:06:44;1.17;;;0.50;;
72408;SDS011;60402;48.082;11.628;2023-03-11T05:09:10;1.63;;;0.40;;
72408;SDS011;60402;48.082;11.628;2023-03-11T05:11:35;0.80;;;0.50;;
72408;SDS011;60402;48.082;11.628;2023-03-11T05:14:00;3.85;;;0.65;;
72408;SDS011;60402;48.082;11.628;2023-03-11T05:16:26;1.75;;;0.63;;
72408;SDS011;60402;48.082;11.628;2023-03-11T05:18:51;1.85;;;0.60;;
72408;SDS011;60402;48.082;11.628;2023-03-11T05:21:16;1.55;;;0.55;;
72408;SDS011;60402;48.082;11.628;2023-03-11T05:23:42;1.75;;;0.70;;
72408;SDS011;60402;48.082;11.628;2023-03-11T05:26:09;2.50;;;0.63;;
72408;SDS011;60402;48.082;11.628;2023-03-11T05:28:34;1.75;;;0.40;;
72408;SDS011;60402;48.082;11.628;2023-03-11T05:30:59;2.05;;;0.70;;
72408;SDS011;60402;48.082;11.628;2023-03-11T05:33:25;1.05;;;0.52;;
72408;SDS011;60402;48.082;11.628;2023-03-11T05:35:50;0.73;;;0.60;;
72408;SDS011;60402;48.082;11.628;2023-03-11T05:38:16;1.60;;;0.65;;
72408;SDS011;60402;48.082;11.628;2023-03-11T05:40:41;0.77;;;0.50;;
72408;SDS011;60402;48.082;11.628;2023-03-11T05:43:07;2.78;;;0.88;;
72408;SDS011;60402;48.082;11.628;2023-03-11T05:45:32;1.42;;;0.70;;
72408;SDS011;60402;48.082;11.628;2023-03-11T05:47:58;1.60;;;0.65;;
72408;SDS011;60402;48.082;11.628;2023-03-11T05:50:23;1.15;;;0.73;;
72408;SDS011;60402;48.082;11.628;2023-03-11T05:52:48;1.00;;;0.60;;
72408;SDS011;60402;48.082;11.628;2023-03-11T05:55:14;0.60;;;0.50;;
72408;SDS011;60402;48.082;11.628;2023-03-11T05:57:39;2.13;;;0.70;;
72408;SDS011;60402;48.082;11.628;2023-03-11T06:00:05;1.98;;;0.82;;
72408;SDS011;60402;48.082;11.628;2023-03-11T06:02:36;2.00;;;0.70;;
72408;SDS011;60402;48.082;11.628;2023-03-11T06:05:03;1.73;;;0.60;;
72408;SDS011;60402;48.082;11.628;2023-03-11T06:07:28;3.67;;;1.00;;
72408;SDS011;60402;48.082;11.628;2023-03-11T06:09:54;1.80;;;0.50;;
72408;SDS011;60402;48.082;11.628;2023-03-11T06:12:19;3.22;;;0.80;;
72408;SDS011;60402;48.082;11.628;2023-03-11T06:14:44;1.33;;;0.60;;
72408;SDS011;60402;48.082;11.628;2023-03-11T06:17:10;3.20;;;0.68;;
72408;SDS011;60402;48.082;11.628;2023-03-11T06:19:35;3.10;;;0.88;;
72408;SDS011;60402;48.082;11.628;2023-03-11T06:22:01;0.98;;;0.52;;
72408;SDS011;60402;48.082;11.628;2023-03-11T06:24:26;1.45;;;0.70;;
72408;SDS011;60402;48.082;11.628;2023-03-11T06:26:51;1.05;;;0.55;;
72408;SDS011;60402;48.082;11.628;2023-03-11T06:29:17;2.45;;;0.70;;
72408;SDS011;60402;48.082;11.628;2023-03-11T06:31:42;1.20;;;0.40;;
72408;SDS011;60402;48.082;11.628;2023-03-11T06:34:08;0.68;;;0.47;;
72408;SDS011;60402;48.082;11.628;2023-03-11T06:36:35;1.80;;;0.73;;
72408;SDS011;60402;48.082;11.628;2023-03-11T06:39:01;3.55;;;0.90;;
72408;SDS011;60402;48.082;11.628;2023-03-11T06:41:27;2.53;;;0.60;;
72408;SDS011;60402;48.082;11.628;2023-03-11T06:43:53;3.67;;;0.80;;
72408;SDS011;60402;48.082;11.628;2023-03-11T06:46:19;3.95;;;0.80;;
72408;SDS011;60402;48.082;11.628;2023-03-11T06:48:46;3.28;;;1.25;;
72408;SDS011;60402;48.082;11.628;2023-03-11T06:51:15;3.17;;;1.20;;
72408;SDS011;60402;48.082;11.628;2023-03-11T06:53:41;3.65;;;1.10;;
72408;SDS011;60402;48.082;11.628;2023-03-11T06:56:10;2.00;;;0.98;;
72408;SDS011;60402;48.082;11.628;2023-03-11T06:58:37;3.08;;;0.80;;
72408;SDS011;60402;48.082;11.628;2023-03-11T07:01:04;3.05;;;1.08;;
72408;SDS011;60402;48.082;11.628;2023-03-11T07:03:32;2.05;;;0.90;;
72408;SDS011;60402;48.082;11.628;2023-03-11T07:05:58;2.28;;;0.90;;
72408;SDS011;60402;48.082;11.628;2023-03-11T07:08:23;1.30;;;0.80;;
72408;SDS011;60402;48.082;11.628;2023-03-11T07:13:45;1.27;;;0.63;;
72408;SDS011;60402;48.082;11.628;2023-03-11T07:18:39;1.30;;;0.70;;
72408;SDS011;60402;48.082;11.628;2023-03-11T07:21:06;1.40;;;0.60;;
72408;SDS011;60402;48.082;11.628;2023-03-11T07:23:32;3.53;;;0.82;;
72408;SDS011;60402;48.082;11.628;2023-03-11T07:25:59;2.90;;;1.00;;
72408;SDS011;60402;48.082;11.628;2023-03-11T07:28:24;2.40;;;0.70;;
72408;SDS011;60402;48.082;11.628;2023-03-11T07:30:51;1.83;;;0.80;;
72408;SDS011;60402;48.082;11.628;2023-03-11T07:33:17;2.13;;;0.90;;
72408;SDS011;60402;48.082;11.628;2023-03-11T07:35:42;1.80;;;0.65;;
72408;SDS011;60402;48.082;11.628;2023-03-11T07:38:08;4.30;;;1.00;;
72408;SDS011;60402;48.082;11.628;2023-03-11T07:40:34;0.85;;;0.60;;
72408;SDS011;60402;48.082;11.628;2023-03-11T07:42:59;1.70;;;0.77;;
72408;SDS011;60402;48.082;11.628;2023-03-11T07:45:25;1.30;;;0.70;;
72408;SDS011;60402;48.082;11.628;2023-03-11T07:47:50;1.98;;;1.00;;
72408;SDS011;60402;48.082;11.628;2023-03-11T07:50:16;1.98;;;0.77;;
72408;SDS011;60402;48.082;11.628;2023-03-11T07:52:41;4.05;;;1.38;;
72408;SDS011;60402;48.082;11.628;2023-03-11T07:55:07;3.35;;;1.20;;
72408;SDS011;60402;48.082;11.628;2023-03-11T07:57:33;2.72;;;1.00;;
72408;SDS011;60402;48.082;11.628;2023-03-11T07:59:58;2.28;;;0.82;;
72408;SDS011;60402;48.082;11.628;2023-03-11T08:02:23;2.83;;;1.20;;
72408;SDS011;60402;48.082;11.628;2023-03-11T08:04:49;2.03;;;0.90;;
72408;SDS011;60402;48.082;11.628;2023-03-11T08:07:14;2.07;;;1.03;;
72408;SDS011;60402;48.082;11.628;2023-03-11T08:09:39;1.87;;;0.90;;
72408;SDS011;60402;48.082;11.628;2023-03-11T08:12:04;1.95;;;0.90;;
72408;SDS011;60402;48.082;11.628;2023-03-11T08:14:30;2.03;;;0.85;;
72408;SDS011;60402;48.082;11.628;2023-03-11T08:16:55;1.83;;;0.90;;
72408;SDS011;60402;48.082;11.628;2023-03-11T08:19:21;1.17;;;0.75;;
72408;SDS011;60402;48.082;11.628;2023-03-11T08:21:46;2.75;;;1.00;;
72408;SDS011;60402;48.082;11.628;2023-03-11T08:24:12;1.55;;;0.77;;
72408;SDS011;60402;48.082;11.628;2023-03-11T08:26:38;1.45;;;0.70;;
72408;SDS011;60402;48.082;11.628;2023-03-11T08:29:04;1.52;;;1.02;;
72408;SDS011;60402;48.082;11.628;2023-03-11T08:31:30;2.13;;;0.82;;
72408;SDS011;60402;48.082;11.628;2023-03-11T08:34:02;2.80;;;0.80;;
72408;SDS011;60402;48.082;11.628;2023-03-11T08:36:29;2.10;;;1.00;;
72408;SDS011;60402;48.082;11.628;2023-03-11T08:38:55;2.40;;;1.00;;
72408;SDS011;60402;48.082;11.628;2023-03-11T08:41:21;1.88;;;0.90;;
72408;SDS011;60402;48.082;11.628;2023-03-11T08:43:47;2.53;;;0.90;;
72408;SDS011;60402;48.082;11.628;2023-03-11T08:46:13;1.80;;;0.60;;
72408;SDS011;60402;48.082;11.628;2023-03-11T08:48:43;2.50;;;0.90;;
72408;SDS011;60402;48.082;11.628;2023-03-11T08:51:10;1.97;;;0.60;;
72408;SDS011;60402;48.082;11.628;2023-03-11T08:53:36;2.83;;;1.00;;
72408;SDS011;60402;48.082;11.628;2023-03-11T08:56:02;2.40;;;0.90;;
72408;SDS011;60402;48.082;11.628;2023-03-11T08:58:28;2.75;;;1.17;;
72408;SDS011;60402;48.082;11.628;2023-03-11T09:00:54;1.52;;;0.82;;
72408;SDS011;60402;48.082;11.628;2023-03-11T09:03:19;1.63;;;0.70;;
72408;SDS011;60402;48.082;11.628;2023-03-11T09:05:44;1.15;;;0.73;;
72408;SDS011;60402;48.082;11.628;2023-03-11T09:08:10;1.23;;;0.70;;
72408;SDS011;60402;48.082;11.628;2023-03-11T09:10:35;2.38;;;0.68;;
72408;SDS011;60402;48.082;11.628;2023-03-11T09:13:00;2.53;;;0.98;;
72408;SDS011;60402;48.082;11.628;2023-03-11T09:15:25;1.42;;;0.80;;
72408;SDS011;60402;48.082;11.628;2023-03-11T09:17:51;1.80;;;0.80;;
72408;SDS011;60402;48.082;11.628;2023-03-11T09:20:17;2.40;;;0.80;;
72408;SDS011;60402;48.082;11.628;2023-03-11T09:22:42;1.08;;;0.60;;
72408;SDS011;60402;48.082;11.628;2023-03-11T09:25:08;1.55;;;0.90;;
72408;SDS011;60402;48.082;11.628;2023-03-11T09:27:36;3.33;;;0.80;;
72408;SDS011;60402;48.082;11.628;2023-03-11T09:30:01;0.75;;;0.60;;
72408;SDS011;60402;48.082;11.628;2023-03-11T09:32:26;2.20;;;0.73;;
72408;SDS011;60402;48.082;11.628;2023-03-11T09:34:52;3.22;;;0.80;;
72408;SDS011;60402;48.082;11.628;2023-03-11T09:37:17;2.60;;;0.88;;
72408;SDS011;60402;48.082;11.628;2023-03-11T09:39:42;7.13;;;2.07;;
72408;SDS011;60402;48.082;11.628;2023-03-11T09:42:19;4.78;;;1.40;;
72408;SDS011;60402;48.082;11.628;2023-03-11T09:55:51;2.83;;;0.75;;
72408;SDS011;60402;48.082;11.628;2023-03-11T10:01:03;1.88;;;1.10;;
72408;SDS011;60402;48.082;11.628;2023-03-11T10:03:46;2.97;;;0.73;;
72408;SDS011;60402;48.082;11.628;2023-03-11T10:08:46;1.50;;;0.60;;
72408;SDS011;60402;48.082;11.628;2023-03-11T10:13:55;1.37;;;0.70;;
72408;SDS011;60402;48.082;11.628;2023-03-11T10:16:31;2.10;;;0.80;;
72408;SDS011;60402;48.082;11.628;2023-03-11T10:19:10;1.42;;;0.60;;
72408;SDS011;60402;48.082;11.628;2023-03-11T10:21:49;1.15;;;0.70;;
72408;SDS011;60402;48.082;11.628;2023-03-11T10:24:32;0.98;;;0.65;;
72408;SDS011;60402;48.082;11.628;2023-03-11T10:27:15;1.30;;;0.60;;
72408;SDS011;60402;48.082;11.628;2023-03-11T10:38:11;1.35;;;0.60;;
72408;SDS011;60402;48.082;11.628;2023-03-11T10:40:40;3.22;;;0.80;;
72408;SDS011;60402;48.082;11.628;2023-03-11T10:43:15;2.22;;;0.77;;
72408;SDS011;60402;48.082;11.628;2023-03-11T10:48:13;1.55;;;0.57;;
72408;SDS011;60402;48.082;11.628;2023-03-11T10:50:44;1.50;;;0.50;;
72408;SDS011;60402;48.082;11.628;2023-03-11T10:53:17;0.80;;;0.60;;
72408;SDS011;60402;48.082;11.628;2023-03-11T10:55:53;0.70;;;0.60;;
72408;SDS011;60402;48.082;11.628;2023-03-11T10:58:22;2.88;;;0.70;;
72408;SDS011;60402;48.082;11.628;2023-03-11T11:01:02;2.22;;;0.65;;
72408;SDS011;60402;48.082;11.628;2023-03-11T11:03:28;1.45;;;0.57;;
72408;SDS011;60402;48.082;11.628;2023-03-11T11:05:58;0.70;;;0.50;;
72408;SDS011;60402;48.082;11.628;2023-03-11T11:08:26;0.65;;;0.50;;
72408;SDS011;60402;48.082;11.628;2023-03-11T11:10:55;0.77;;;0.50;;
72408;SDS011;60402;48.082;11.628;2023-03-11T11:13:28;2.75;;;0.70;;
72408;SDS011;60402;48.082;11.628;2023-03-11T11:21:04;0.40;;;0.40;;
72408;SDS011;60402;48.082;11.628;2023-03-11T11:23:36;1.88;;;0.60;;
72408;SDS011;60402;48.082;11.628;2023-03-11T11:26:13;2.05;;;0.90;;
72408;SDS011;60402;48.082;11.628;2023-03-11T11:29:11;2.40;;;0.80;;
72408;SDS011;60402;48.082;11.628;2023-03-11T11:31:40;2.58;;;0.82;;
72408;SDS011;60402;48.082;11.628;2023-03-11T11:36:55;0.90;;;0.45;;
72408;SDS011;60402;48.082;11.628;2023-03-11T11:39:22;2.13;;;0.80;;
72408;SDS011;60402;48.082;11.628;2023-03-11T11:41:54;3.08;;;1.02;;
72408;SDS011;60402;48.082;11.628;2023-03-11T11:44:21;0.82;;;0.47;;
72408;SDS011;60402;48.082;11.628;2023-03-11T11:46:55;1.67;;;0.80;;
72408;SDS011;60402;48.082;11.628;2023-03-11T11:49:26;2.22;;;0.75;;
72408;SDS011;60402;48.082;11.628;2023-03-11T11:51:55;1.85;;;0.80;;
72408;SDS011;60402;48.082;11.628;2023-03-11T11:54:32;2.97;;;1.00;;
72408;SDS011;60402;48.082;11.628;2023-03-11T11:57:13;1.90;;;1.00;;
72408;SDS011;60402;48.082;11.628;2023-03-11T11:59:39;3.05;;;0.88;;
72408;SDS011;60402;48.082;11.628;2023-03-11T12:02:11;2.38;;;0.80;;
72408;SDS011;60402;48.082;11.628;2023-03-11T12:12:39;2.28;;;0.90;;
72408;SDS011;60402;48.082;11.628;2023-03-11T12:15:15;1.20;;;0.52;;
72408;SDS011;60402;48.082;11.628;2023-03-11T12:17:46;1.40;;;0.63;;
72408;SDS011;60402;48.082;11.628;2023-03-11T12:25:47;1.35;;;0.70;;
72408;SDS011;60402;48.082;11.628;2023-03-11T12:31:11;2.72;;;0.90;;
72408;SDS011;60402;48.082;11.628;2023-03-11T12:33:39;1.40;;;0.77;;
72408;SDS011;60402;48.082;11.628;2023-03-11T12:36:35;2.20;;;0.80;;
72408;SDS011;60402;48.082;11.628;2023-03-11T12:39:07;0.98;;;0.47;;
72408;SDS011;60402;48.082;11.628;2023-03-11T12:41:48;2.28;;;0.70;;
72408;SDS011;60402;48.082;11.628;2023-03-11T12:44:33;0.77;;;0.50;;
72408;SDS011;60402;48.082;11.628;2023-03-11T12:47:00;2.85;;;0.80;;
72408;SDS011;60402;48.082;11.628;2023-03-11T12:54:41;2.58;;;1.00;;
72408;SDS011;60402;48.082;11.628;2023-03-11T13:07:48;1.90;;;0.88;;
72408;SDS011;60402;48.082;11.628;2023-03-11T13:12:57;2.40;;;0.80;;
72408;SDS011;60402;48.082;11.628;2023-03-11T13:15:28;1.42;;;0.60;;
72408;SDS011;60402;48.082;11.628;2023-03-11T13:26:35;5.53;;;1.30;;
72408;SDS011;60402;48.082;11.628;2023-03-11T13:34:49;3.38;;;0.93;;
72408;SDS011;60402;48.082;11.628;2023-03-11T13:42:56;1.90;;;0.90;;
72408;SDS011;60402;48.082;11.628;2023-03-11T13:45:28;2.83;;;0.88;;
72408;SDS011;60402;48.082;11.628;2023-03-11T13:47:59;1.85;;;0.90;;
72408;SDS011;60402;48.082;11.628;2023-03-11T13:50:31;3.20;;;0.93;;
72408;SDS011;60402;48.082;11.628;2023-03-11T13:53:01;2.50;;;0.82;;
72408;SDS011;60402;48.082;11.628;2023-03-11T13:55:33;3.75;;;0.80;;
72408;SDS011;60402;48.082;11.628;2023-03-11T13:58:13;2.58;;;1.20;;
72408;SDS011;60402;48.082;11.628;2023-03-11T14:00:48;2.15;;;0.85;;
72408;SDS011;60402;48.082;11.628;2023-03-11T14:03:16;2.10;;;0.80;;
72408;SDS011;60402;48.082;11.628;2023-03-11T14:05:47;3.38;;;0.98;;
72408;SDS011;60402;48.082;11.628;2023-03-11T14:08:21;2.03;;;1.00;;
72408;SDS011;60402;48.082;11.628;2023-03-11T14:13:39;2.70;;;0.93;;
72408;SDS011;60402;48.082;11.628;2023-03-11T14:16:19;0.63;;;0.52;;
72408;SDS011;60402;48.082;11.628;2023-03-11T14:19:02;1.92;;;0.95;;
72408;SDS011;60402;48.082;11.628;2023-03-11T14:21:32;2.30;;;1.10;;
72408;SDS011;60402;48.082;11.628;2023-03-11T14:23:58;1.50;;;0.95;;
72408;SDS011;60402;48.082;11.628;2023-03-11T14:26:27;1.50;;;0.82;;
72408;SDS011;60402;48.082;11.628;2023-03-11T14:29:00;2.97;;;0.80;;
72408;SDS011;60402;48.082;11.628;2023-03-11T14:31:34;2.45;;;0.82;;
72408;SDS011;60402;48.082;11.628;2023-03-11T14:36:38;0.95;;;0.65;;
72408;SDS011;60402;48.082;11.628;2023-03-11T14:39:04;1.75;;;0.90;;
72408;SDS011;60402;48.082;11.628;2023-03-11T14:41:30;2.13;;;0.98;;
72408;SDS011;60402;48.082;11.628;2023-03-11T14:43:56;3.78;;;1.10;;
72408;SDS011;60402;48.082;11.628;2023-03-11T14:46:23;2.38;;;1.27;;
72408;SDS011;60402;48.082;11.628;2023-03-11T14:48:52;2.08;;;0.75;;
72408;SDS011;60402;48.082;11.628;2023-03-11T14:51:20;2.22;;;1.05;;
72408;SDS011;60402;48.082;11.628;2023-03-11T14:56:22;2.38;;;1.08;;
72408;SDS011;60402;48.082;11.628;2023-03-11T15:01:32;2.08;;;0.80;;
72408;SDS011;60402;48.082;11.628;2023-03-11T15:04:08;1.92;;;0.98;;
72408;SDS011;60402;48.082;11.628;2023-03-11T15:06:42;2.03;;;1.00;;
72408;SDS011;60402;48.082;11.628;2023-03-11T15:11:43;1.85;;;0.98;;
72408;SDS011;60402;48.082;11.628;2023-03-11T15:14:13;2.17;;;1.00;;
72408;SDS011;60402;48.082;11.628;2023-03-11T15:16:43;3.05;;;1.25;;
72408;SDS011;60402;48.082;11.628;2023-03-11T15:21:52;3.45;;;1.00;;
72408;SDS011;60402;48.082;11.628;2023-03-11T15:24:21;3.17;;;1.30;;
72408;SDS011;60402;48.082;11.628;2023-03-11T15:26:59;3.22;;;1.33;;
72408;SDS011;60402;48.082;11.628;2023-03-11T15:29:27;2.70;;;0.90;;
72408;SDS011;60402;48.082;11.628;2023-03-11T15:31:54;2.97;;;1.33;;
72408;SDS011;60402;48.082;11.628;2023-03-11T15:34:25;5.32;;;1.48;;
72408;SDS011;60402;48.082;11.628;2023-03-11T15:39:44;2.35;;;1.20;;
72408;SDS011;60402;48.082;11.628;2023-03-11T15:42:12;1.88;;;1.10;;
72408;SDS011;60402;48.082;11.628;2023-03-11T15:45:00;3.00;;;1.10;;
72408;SDS011;60402;48.082;11.628;2023-03-11T15:47:28;2.28;;;1.05;;
72408;SDS011;60402;48.082;11.628;2023-03-11T15:49:54;2.70;;;1.00;;
72408;SDS011;60402;48.082;11.628;2023-03-11T15:52:19;2.65;;;1.08;;
72408;SDS011;60402;48.082;11.628;2023-03-11T15:54:45;1.73;;;0.93;;
72408;SDS011;60402;48.082;11.628;2023-03-11T15:57:15;4.60;;;1.70;;
72408;SDS011;60402;48.082;11.628;2023-03-11T15:59:46;3.80;;;1.50;;
72408;SDS011;60402;48.082;11.628;2023-03-11T16:02:22;4.40;;;1.50;;
72408;SDS011;60402;48.082;11.628;2023-03-11T16:04:50;3.72;;;1.65;;
72408;SDS011;60402;48.082;11.628;2023-03-11T16:07:16;4.75;;;1.55;;
72408;SDS011;60402;48.082;11.628;2023-03-11T16:09:41;4.40;;;1.33;;
72408;SDS011;60402;48.082;11.628;2023-03-11T16:12:19;3.80;;;1.38;;
72408;SDS011;60402;48.082;11.628;2023-03-11T16:14:46;2.92;;;0.98;;
72408;SDS011;60402;48.082;11.628;2023-03-11T16:17:13;3.42;;;1.10;;
72408;SDS011;60402;48.082;11.628;2023-03-11T16:19:42;2.13;;;1.10;;
72408;SDS011;60402;48.082;11.628;2023-03-11T16:22:12;5.13;;;1.25;;
72408;SDS011;60402;48.082;11.628;2023-03-11T16:24:49;3.65;;;1.40;;
72408;SDS011;60402;48.082;11.628;2023-03-11T16:27:17;3.88;;;1.48;;
72408;SDS011;60402;48.082;11.628;2023-03-11T16:29:43;2.13;;;0.90;;
72408;SDS011;60402;48.082;11.628;2023-03-11T16:32:09;2.42;;;1.10;;
72408;SDS011;60402;48.082;11.628;2023-03-11T16:34:35;2.75;;;1.00;;
72408;SDS011;60402;48.082;11.628;2023-03-11T16:37:03;4.68;;;1.35;;
72408;SDS011;60402;48.082;11.628;2023-03-11T16:39:29;3.95;;;1.30;;
72408;SDS011;60402;48.082;11.628;2023-03-11T16:41:54;3.42;;;1.23;;
72408;SDS011;60402;48.082;11.628;2023-03-11T16:44:20;2.78;;;1.20;;
72408;SDS011;60402;48.082;11.628;2023-03-11T16:46:45;3.25;;;1.10;;